sensor_id;sensor_type;location;lat;lon;timestamp;temperature;humidity
55331;DHT22;58851;42.984;20.336;2023-11-22T00:01:52;230.80;6502.40
55331;DHT22;58851;42.984;20.336;2023-11-22T00:04:18;230.80;6502.40
55331;DHT22;58851;42.984;20.336;2023-11-22T00:06:45;230.70;6502.40
55331;DHT22;58851;42.984;20.336;2023-11-22T00:09:11;230.80;6502.40
55331;DHT22;58851;42.984;20.336;2023-11-22T00:11:37;230.80;6502.40
55331;DHT22;58851;42.984;20.336;2023-11-22T00:14:02;230.70;6502.40
55331;DHT22;58851;42.984;20.336;2023-11-22T00:16:28;230.80;6528.00
55331;DHT22;58851;42.984;20.336;2023-11-22T00:18:55;230.80;6502.40
55331;DHT22;58851;42.984;20.336;2023-11-22T00:21:21;230.60;128.00
55331;DHT22;58851;42.984;20.336;2023-11-22T00:23:46;230.40;563.20
55331;DHT22;58851;42.984;20.336;2023-11-22T00:26:12;205.70;6502.40
55331;DHT22;58851;42.984;20.336;2023-11-22T00:28:38;205.70;6502.40
55331;DHT22;58851;42.984;20.336;2023-11-22T00:31:03;205.70;6502.40
55331;DHT22;58851;42.984;20.336;2023-11-22T00:33:29;230.40;6502.40
55331;DHT22;58851;42.984;20.336;2023-11-22T00:35:56;230.50;6502.40
55331;DHT22;58851;42.984;20.336;2023-11-22T00:38:23;230.50;6502.40
55331;DHT22;58851;42.984;20.336;2023-11-22T00:40:49;230.50;460.80
55331;DHT22;58851;42.984;20.336;2023-11-22T00:43:15;230.50;435.20
55331;DHT22;58851;42.984;20.336;2023-11-22T00:45:41;230.50;486.40
55331;DHT22;58851;42.984;20.336;2023-11-22T00:48:07;230.50;307.20
55331;DHT22;58851;42.984;20.336;2023-11-22T00:50:33;230.50;512.00
55331;DHT22;58851;42.984;20.336;2023-11-22T00:52:58;230.50;384.00
55331;DHT22;58851;42.984;20.336;2023-11-22T00:55:24;230.50;358.40
55331;DHT22;58851;42.984;20.336;2023-11-22T00:57:50;230.50;230.40
55331;DHT22;58851;42.984;20.336;2023-11-22T01:00:15;230.50;256.00
55331;DHT22;58851;42.984;20.336;2023-11-22T01:02:41;230.50;256.00
55331;DHT22;58851;42.984;20.336;2023-11-22T01:05:07;230.50;128.00
55331;DHT22;58851;42.984;20.336;2023-11-22T01:07:41;230.40;6528.00
55331;DHT22;58851;42.984;20.336;2023-11-22T01:10:07;230.40;128.00
55331;DHT22;58851;42.984;20.336;2023-11-22T01:12:33;230.40;6502.40
55331;DHT22;58851;42.984;20.336;2023-11-22T01:14:59;230.40;6528.00
55331;DHT22;58851;42.984;20.336;2023-11-22T01:17:24;230.40;6502.40
55331;DHT22;58851;42.984;20.336;2023-11-22T01:19:51;230.40;6528.00
55331;DHT22;58851;42.984;20.336;2023-11-22T01:22:17;230.40;6502.40
55331;DHT22;58851;42.984;20.336;2023-11-22T01:24:43;230.40;6502.40
55331;DHT22;58851;42.984;20.336;2023-11-22T01:27:09;230.40;537.60
55331;DHT22;58851;42.984;20.336;2023-11-22T01:29:35;230.40;6502.40
55331;DHT22;58851;42.984;20.336;2023-11-22T01:32:01;230.40;435.20
55331;DHT22;58851;42.984;20.336;2023-11-22T01:34:26;205.70;384.00
55331;DHT22;58851;42.984;20.336;2023-11-22T01:36:52;205.70;256.00
55331;DHT22;58851;42.984;20.336;2023-11-22T01:39:18;205.70;6528.00
55331;DHT22;58851;42.984;20.336;2023-11-22T01:41:44;205.70;6502.40
55331;DHT22;58851;42.984;20.336;2023-11-22T01:44:10;205.70;6502.40
55331;DHT22;58851;42.984;20.336;2023-11-22T01:46:36;205.70;6502.40
55331;DHT22;58851;42.984;20.336;2023-11-22T01:49:03;205.70;6502.40
55331;DHT22;58851;42.984;20.336;2023-11-22T01:51:29;205.70;6502.40
55331;DHT22;58851;42.984;20.336;2023-11-22T01:53:55;205.70;6502.40
55331;DHT22;58851;42.984;20.336;2023-11-22T01:56:22;205.70;6502.40
55331;DHT22;58851;42.984;20.336;2023-11-22T01:58:48;205.70;6502.40
55331;DHT22;58851;42.984;20.336;2023-11-22T02:01:14;205.60;6502.40
55331;DHT22;58851;42.984;20.336;2023-11-22T02:03:40;205.60;6502.40
55331;DHT22;58851;42.984;20.336;2023-11-22T02:06:06;205.50;6502.40
55331;DHT22;58851;42.984;20.336;2023-11-22T02:08:33;205.30;486.40
55331;DHT22;58851;42.984;20.336;2023-11-22T02:10:59;205.20;6502.40
55331;DHT22;58851;42.984;20.336;2023-11-22T02:13:24;205.10;6502.40
55331;DHT22;58851;42.984;20.336;2023-11-22T02:15:50;205.10;6502.40
55331;DHT22;58851;42.984;20.336;2023-11-22T02:18:16;205.10;6502.40
55331;DHT22;58851;42.984;20.336;2023-11-22T02:20:42;205.00;384.00
55331;DHT22;58851;42.984;20.336;2023-11-22T02:23:08;204.90;6502.40
55331;DHT22;58851;42.984;20.336;2023-11-22T02:25:34;204.80;6502.40
55331;DHT22;58851;42.984;20.336;2023-11-22T02:28:01;180.00;6502.40
55331;DHT22;58851;42.984;20.336;2023-11-22T02:30:28;179.80;6502.40
55331;DHT22;58851;42.984;20.336;2023-11-22T02:32:53;179.70;6502.40
55331;DHT22;58851;42.984;20.336;2023-11-22T02:35:19;179.70;6502.40
55331;DHT22;58851;42.984;20.336;2023-11-22T02:37:45;179.70;6502.40
55331;DHT22;58851;42.984;20.336;2023-11-22T02:40:17;179.70;6502.40
55331;DHT22;58851;42.984;20.336;2023-11-22T02:42:47;179.70;6502.40
55331;DHT22;58851;42.984;20.336;2023-11-22T02:45:14;179.60;6502.40
55331;DHT22;58851;42.984;20.336;2023-11-22T02:47:39;179.60;6502.40
55331;DHT22;58851;42.984;20.336;2023-11-22T02:50:06;179.70;6502.40
55331;DHT22;58851;42.984;20.336;2023-11-22T02:52:31;179.70;6502.40
55331;DHT22;58851;42.984;20.336;2023-11-22T02:54:58;179.60;6502.40
55331;DHT22;58851;42.984;20.336;2023-11-22T02:57:24;179.50;6502.40
55331;DHT22;58851;42.984;20.336;2023-11-22T02:59:49;179.60;6502.40
55331;DHT22;58851;42.984;20.336;2023-11-22T03:02:15;179.50;6502.40
55331;DHT22;58851;42.984;20.336;2023-11-22T03:04:42;179.50;6502.40
55331;DHT22;58851;42.984;20.336;2023-11-22T03:07:09;179.40;6502.40
55331;DHT22;58851;42.984;20.336;2023-11-22T03:09:35;179.50;6502.40
55331;DHT22;58851;42.984;20.336;2023-11-22T03:12:02;179.60;6502.40
55331;DHT22;58851;42.984;20.336;2023-11-22T03:14:28;179.60;6502.40
55331;DHT22;58851;42.984;20.336;2023-11-22T03:16:54;179.50;6502.40
55331;DHT22;58851;42.984;20.336;2023-11-22T03:19:20;179.50;6502.40
55331;DHT22;58851;42.984;20.336;2023-11-22T03:21:46;179.50;6502.40
55331;DHT22;58851;42.984;20.336;2023-11-22T03:24:11;179.60;6502.40
55331;DHT22;58851;42.984;20.336;2023-11-22T03:26:37;179.50;6502.40
55331;DHT22;58851;42.984;20.336;2023-11-22T03:29:04;179.60;6502.40
55331;DHT22;58851;42.984;20.336;2023-11-22T03:31:30;179.40;6502.40
55331;DHT22;58851;42.984;20.336;2023-11-22T03:33:56;179.40;6502.40
55331;DHT22;58851;42.984;20.336;2023-11-22T03:36:22;179.40;6502.40
55331;DHT22;58851;42.984;20.336;2023-11-22T03:38:48;179.40;6502.40
55331;DHT22;58851;42.984;20.336;2023-11-22T03:41:14;179.40;6502.40
55331;DHT22;58851;42.984;20.336;2023-11-22T03:43:39;179.50;6502.40
55331;DHT22;58851;42.984;20.336;2023-11-22T03:46:05;179.50;6502.40
55331;DHT22;58851;42.984;20.336;2023-11-22T03:48:30;179.60;6502.40
55331;DHT22;58851;42.984;20.336;2023-11-22T03:50:56;179.60;6502.40
55331;DHT22;58851;42.984;20.336;2023-11-22T03:53:22;179.50;6502.40
55331;DHT22;58851;42.984;20.336;2023-11-22T03:55:51;179.50;6502.40
55331;DHT22;58851;42.984;20.336;2023-11-22T03:58:17;179.50;6502.40
55331;DHT22;58851;42.984;20.336;2023-11-22T04:00:43;179.60;6502.40
55331;DHT22;58851;42.984;20.336;2023-11-22T04:03:09;179.60;6502.40
55331;DHT22;58851;42.984;20.336;2023-11-22T04:05:34;179.70;6502.40
55331;DHT22;58851;42.984;20.336;2023-11-22T04:08:00;179.70;6502.40
55331;DHT22;58851;42.984;20.336;2023-11-22T04:10:25;179.70;6502.40
55331;DHT22;58851;42.984;20.336;2023-11-22T04:12:51;179.70;435.20
55331;DHT22;58851;42.984;20.336;2023-11-22T04:15:17;179.70;6502.40
55331;DHT22;58851;42.984;20.336;2023-11-22T04:17:42;179.70;6502.40
55331;DHT22;58851;42.984;20.336;2023-11-22T04:20:08;179.70;384.00
55331;DHT22;58851;42.984;20.336;2023-11-22T04:22:40;179.70;204.80
55331;DHT22;58851;42.984;20.336;2023-11-22T04:25:06;179.80;384.00
55331;DHT22;58851;42.984;20.336;2023-11-22T04:27:32;179.80;512.00
55331;DHT22;58851;42.984;20.336;2023-11-22T04:29:58;179.80;128.00
55331;DHT22;58851;42.984;20.336;2023-11-22T04:32:23;179.80;6502.40
55331;DHT22;58851;42.984;20.336;2023-11-22T04:34:49;179.80;128.00
55331;DHT22;58851;42.984;20.336;2023-11-22T04:37:15;179.80;6502.40
55331;DHT22;58851;42.984;20.336;2023-11-22T04:39:40;179.80;6528.00
55331;DHT22;58851;42.984;20.336;2023-11-22T04:42:06;179.80;6502.40
55331;DHT22;58851;42.984;20.336;2023-11-22T04:44:31;179.70;6502.40
55331;DHT22;58851;42.984;20.336;2023-11-22T04:46:57;179.70;6502.40
55331;DHT22;58851;42.984;20.336;2023-11-22T04:49:25;179.70;6502.40
55331;DHT22;58851;42.984;20.336;2023-11-22T04:51:50;179.70;6502.40
55331;DHT22;58851;42.984;20.336;2023-11-22T04:54:16;179.80;6502.40
55331;DHT22;58851;42.984;20.336;2023-11-22T04:56:42;179.80;6502.40
55331;DHT22;58851;42.984;20.336;2023-11-22T04:59:08;179.90;6502.40
55331;DHT22;58851;42.984;20.336;2023-11-22T05:01:34;179.90;6502.40
55331;DHT22;58851;42.984;20.336;2023-11-22T05:04:00;179.80;6502.40
55331;DHT22;58851;42.984;20.336;2023-11-22T05:06:25;179.70;6502.40
55331;DHT22;58851;42.984;20.336;2023-11-22T05:08:52;179.70;6502.40
55331;DHT22;58851;42.984;20.336;2023-11-22T05:11:19;179.70;6502.40
55331;DHT22;58851;42.984;20.336;2023-11-22T05:13:44;179.70;6502.40
55331;DHT22;58851;42.984;20.336;2023-11-22T05:16:13;179.80;6502.40
55331;DHT22;58851;42.984;20.336;2023-11-22T05:18:49;179.80;6502.40
55331;DHT22;58851;42.984;20.336;2023-11-22T05:21:15;179.80;6502.40
55331;DHT22;58851;42.984;20.336;2023-11-22T05:23:41;179.80;6502.40
55331;DHT22;58851;42.984;20.336;2023-11-22T05:26:07;179.80;6502.40
55331;DHT22;58851;42.984;20.336;2023-11-22T05:28:33;179.80;6502.40
55331;DHT22;58851;42.984;20.336;2023-11-22T05:30:59;179.80;6502.40
55331;DHT22;58851;42.984;20.336;2023-11-22T05:33:25;179.70;6502.40
55331;DHT22;58851;42.984;20.336;2023-11-22T05:35:50;179.70;6502.40
55331;DHT22;58851;42.984;20.336;2023-11-22T05:38:16;179.70;230.40
55331;DHT22;58851;42.984;20.336;2023-11-22T05:40:42;179.80;6528.00
55331;DHT22;58851;42.984;20.336;2023-11-22T05:43:08;179.80;6502.40
55331;DHT22;58851;42.984;20.336;2023-11-22T05:45:35;179.80;6502.40
55331;DHT22;58851;42.984;20.336;2023-11-22T05:48:01;179.80;6502.40
55331;DHT22;58851;42.984;20.336;2023-11-22T05:50:29;179.90;6502.40
55331;DHT22;58851;42.984;20.336;2023-11-22T05:52:55;179.80;6502.40
55331;DHT22;58851;42.984;20.336;2023-11-22T05:55:20;179.80;6502.40
55331;DHT22;58851;42.984;20.336;2023-11-22T05:57:48;179.80;6502.40
55331;DHT22;58851;42.984;20.336;2023-11-22T06:00:13;179.80;6502.40
55331;DHT22;58851;42.984;20.336;2023-11-22T06:02:42;179.80;6502.40
55331;DHT22;58851;42.984;20.336;2023-11-22T06:05:11;179.80;6502.40
55331;DHT22;58851;42.984;20.336;2023-11-22T06:07:37;179.80;6502.40
55331;DHT22;58851;42.984;20.336;2023-11-22T06:10:02;179.70;6502.40
55331;DHT22;58851;42.984;20.336;2023-11-22T06:12:28;179.70;6502.40
55331;DHT22;58851;42.984;20.336;2023-11-22T06:14:54;179.70;6502.40
55331;DHT22;58851;42.984;20.336;2023-11-22T06:17:19;179.80;6502.40
55331;DHT22;58851;42.984;20.336;2023-11-22T06:19:45;179.80;6502.40
55331;DHT22;58851;42.984;20.336;2023-11-22T06:22:12;179.80;6502.40
55331;DHT22;58851;42.984;20.336;2023-11-22T06:24:41;179.80;6502.40
55331;DHT22;58851;42.984;20.336;2023-11-22T06:27:06;179.80;6502.40
55331;DHT22;58851;42.984;20.336;2023-11-22T06:29:32;179.90;6502.40
55331;DHT22;58851;42.984;20.336;2023-11-22T06:31:58;179.80;6502.40
55331;DHT22;58851;42.984;20.336;2023-11-22T06:34:24;179.80;6502.40
55331;DHT22;58851;42.984;20.336;2023-11-22T06:36:50;179.90;6502.40
55331;DHT22;58851;42.984;20.336;2023-11-22T06:39:22;179.90;6502.40
55331;DHT22;58851;42.984;20.336;2023-11-22T06:41:52;179.80;6502.40
55331;DHT22;58851;42.984;20.336;2023-11-22T06:44:18;179.80;6502.40
55331;DHT22;58851;42.984;20.336;2023-11-22T06:46:44;179.80;6502.40
55331;DHT22;58851;42.984;20.336;2023-11-22T06:52:02;179.70;6502.40
55331;DHT22;58851;42.984;20.336;2023-11-22T06:54:28;179.60;6502.40
55331;DHT22;58851;42.984;20.336;2023-11-22T06:56:53;179.50;128.00
55331;DHT22;58851;42.984;20.336;2023-11-22T06:59:19;179.60;6502.40
55331;DHT22;58851;42.984;20.336;2023-11-22T07:01:48;179.60;128.00
55331;DHT22;58851;42.984;20.336;2023-11-22T07:04:15;179.70;6502.40
55331;DHT22;58851;42.984;20.336;2023-11-22T07:06:43;179.70;6502.40
55331;DHT22;58851;42.984;20.336;2023-11-22T07:09:09;179.80;6502.40
55331;DHT22;58851;42.984;20.336;2023-11-22T07:11:35;179.90;6502.40
55331;DHT22;58851;42.984;20.336;2023-11-22T07:14:02;180.00;6502.40
55331;DHT22;58851;42.984;20.336;2023-11-22T07:16:29;180.10;6502.40
55331;DHT22;58851;42.984;20.336;2023-11-22T07:18:55;204.80;6502.40
55331;DHT22;58851;42.984;20.336;2023-11-22T07:21:20;204.80;6502.40
55331;DHT22;58851;42.984;20.336;2023-11-22T07:23:46;204.90;6502.40
55331;DHT22;58851;42.984;20.336;2023-11-22T07:26:12;204.90;6502.40
55331;DHT22;58851;42.984;20.336;2023-11-22T07:28:39;204.80;6502.40
55331;DHT22;58851;42.984;20.336;2023-11-22T07:31:08;204.80;6502.40
55331;DHT22;58851;42.984;20.336;2023-11-22T07:33:34;204.80;6502.40
55331;DHT22;58851;42.984;20.336;2023-11-22T07:36:00;204.90;6502.40
55331;DHT22;58851;42.984;20.336;2023-11-22T07:38:28;205.00;6502.40
55331;DHT22;58851;42.984;20.336;2023-11-22T07:40:54;204.90;6502.40
55331;DHT22;58851;42.984;20.336;2023-11-22T07:43:21;204.90;6502.40
55331;DHT22;58851;42.984;20.336;2023-11-22T07:45:47;205.00;6502.40
55331;DHT22;58851;42.984;20.336;2023-11-22T07:48:14;205.10;6502.40
55331;DHT22;58851;42.984;20.336;2023-11-22T07:50:40;205.10;6502.40
55331;DHT22;58851;42.984;20.336;2023-11-22T07:53:09;204.90;6502.40
55331;DHT22;58851;42.984;20.336;2023-11-22T07:55:37;205.00;6502.40
55331;DHT22;58851;42.984;20.336;2023-11-22T07:58:03;205.10;6502.40
55331;DHT22;58851;42.984;20.336;2023-11-22T08:00:32;205.10;6502.40
55331;DHT22;58851;42.984;20.336;2023-11-22T08:02:59;205.10;6502.40
55331;DHT22;58851;42.984;20.336;2023-11-22T08:05:28;205.10;6502.40
55331;DHT22;58851;42.984;20.336;2023-11-22T08:07:54;205.10;6502.40
55331;DHT22;58851;42.984;20.336;2023-11-22T08:10:19;205.10;6502.40
55331;DHT22;58851;42.984;20.336;2023-11-22T08:12:48;205.10;6502.40
55331;DHT22;58851;42.984;20.336;2023-11-22T08:15:15;205.10;6502.40
55331;DHT22;58851;42.984;20.336;2023-11-22T08:17:41;205.20;6502.40
55331;DHT22;58851;42.984;20.336;2023-11-22T08:20:08;205.20;6502.40
55331;DHT22;58851;42.984;20.336;2023-11-22T08:22:39;205.20;6502.40
55331;DHT22;58851;42.984;20.336;2023-11-22T08:25:05;205.30;6502.40
55331;DHT22;58851;42.984;20.336;2023-11-22T08:27:33;205.30;6502.40
55331;DHT22;58851;42.984;20.336;2023-11-22T08:29:59;205.40;6502.40
55331;DHT22;58851;42.984;20.336;2023-11-22T08:32:33;205.30;6502.40
55331;DHT22;58851;42.984;20.336;2023-11-22T08:34:58;205.40;6502.40
55331;DHT22;58851;42.984;20.336;2023-11-22T08:37:24;205.40;6502.40
55331;DHT22;58851;42.984;20.336;2023-11-22T08:39:50;205.40;6502.40
55331;DHT22;58851;42.984;20.336;2023-11-22T08:42:15;205.40;6502.40
55331;DHT22;58851;42.984;20.336;2023-11-22T08:44:41;205.40;6502.40
55331;DHT22;58851;42.984;20.336;2023-11-22T08:47:07;205.40;6502.40
55331;DHT22;58851;42.984;20.336;2023-11-22T08:49:33;205.40;6502.40
55331;DHT22;58851;42.984;20.336;2023-11-22T08:51:59;205.30;6502.40
55331;DHT22;58851;42.984;20.336;2023-11-22T08:54:25;205.30;6502.40
55331;DHT22;58851;42.984;20.336;2023-11-22T08:56:54;205.10;6502.40
55331;DHT22;58851;42.984;20.336;2023-11-22T08:59:21;205.10;6502.40
55331;DHT22;58851;42.984;20.336;2023-11-22T09:01:47;205.10;6502.40
55331;DHT22;58851;42.984;20.336;2023-11-22T09:04:13;205.10;6502.40
55331;DHT22;58851;42.984;20.336;2023-11-22T09:06:39;205.20;6502.40
55331;DHT22;58851;42.984;20.336;2023-11-22T09:09:04;205.30;6502.40
55331;DHT22;58851;42.984;20.336;2023-11-22T09:11:30;205.30;6502.40
55331;DHT22;58851;42.984;20.336;2023-11-22T09:13:59;205.30;6502.40
55331;DHT22;58851;42.984;20.336;2023-11-22T09:16:27;205.30;6502.40
55331;DHT22;58851;42.984;20.336;2023-11-22T09:18:53;205.40;6502.40
55331;DHT22;58851;42.984;20.336;2023-11-22T09:21:21;205.40;6502.40
55331;DHT22;58851;42.984;20.336;2023-11-22T09:23:47;205.40;6502.40
55331;DHT22;58851;42.984;20.336;2023-11-22T09:26:13;205.50;6502.40
55331;DHT22;58851;42.984;20.336;2023-11-22T09:28:39;205.60;6502.40
55331;DHT22;58851;42.984;20.336;2023-11-22T09:31:08;205.60;6502.40
55331;DHT22;58851;42.984;20.336;2023-11-22T09:33:34;205.60;6502.40
55331;DHT22;58851;42.984;20.336;2023-11-22T09:36:00;205.60;6502.40
55331;DHT22;58851;42.984;20.336;2023-11-22T09:38:29;205.50;6502.40
55331;DHT22;58851;42.984;20.336;2023-11-22T09:40:55;205.60;6502.40
55331;DHT22;58851;42.984;20.336;2023-11-22T09:43:22;205.70;6502.40
55331;DHT22;58851;42.984;20.336;2023-11-22T09:45:51;205.60;6502.40
55331;DHT22;58851;42.984;20.336;2023-11-22T09:48:19;205.60;6502.40
55331;DHT22;58851;42.984;20.336;2023-11-22T09:54:05;230.40;6502.40
55331;DHT22;58851;42.984;20.336;2023-11-22T09:56:12;230.40;6502.40
55331;DHT22;58851;42.984;20.336;2023-11-22T09:58:41;230.50;6502.40
55331;DHT22;58851;42.984;20.336;2023-11-22T10:01:12;230.50;6502.40
55331;DHT22;58851;42.984;20.336;2023-11-22T10:03:38;230.50;6502.40
55331;DHT22;58851;42.984;20.336;2023-11-22T10:06:05;230.50;6502.40
55331;DHT22;58851;42.984;20.336;2023-11-22T10:08:30;230.60;6502.40
55331;DHT22;58851;42.984;20.336;2023-11-22T10:10:57;230.50;6502.40
55331;DHT22;58851;42.984;20.336;2023-11-22T10:13:23;230.60;6502.40
55331;DHT22;58851;42.984;20.336;2023-11-22T10:15:52;230.60;6502.40
55331;DHT22;58851;42.984;20.336;2023-11-22T10:18:18;230.60;6502.40
55331;DHT22;58851;42.984;20.336;2023-11-22T10:20:46;230.50;6502.40
55331;DHT22;58851;42.984;20.336;2023-11-22T10:23:13;230.50;6502.40
55331;DHT22;58851;42.984;20.336;2023-11-22T10:25:45;230.60;6502.40
55331;DHT22;58851;42.984;20.336;2023-11-22T10:28:15;230.60;6502.40
55331;DHT22;58851;42.984;20.336;2023-11-22T10:30:41;230.60;6502.40
55331;DHT22;58851;42.984;20.336;2023-11-22T10:33:09;230.50;6502.40
55331;DHT22;58851;42.984;20.336;2023-11-22T10:35:35;230.50;6502.40
55331;DHT22;58851;42.984;20.336;2023-11-22T10:38:02;230.50;6502.40
55331;DHT22;58851;42.984;20.336;2023-11-22T10:40:31;230.50;6502.40
55331;DHT22;58851;42.984;20.336;2023-11-22T10:42:57;230.50;6502.40
55331;DHT22;58851;42.984;20.336;2023-11-22T10:45:24;230.50;6502.40
55331;DHT22;58851;42.984;20.336;2023-11-22T10:47:52;230.60;6502.40
55331;DHT22;58851;42.984;20.336;2023-11-22T10:50:19;230.50;6502.40
55331;DHT22;58851;42.984;20.336;2023-11-22T10:52:45;230.60;6502.40
55331;DHT22;58851;42.984;20.336;2023-11-22T10:55:14;230.60;6502.40
55331;DHT22;58851;42.984;20.336;2023-11-22T10:57:45;230.70;6502.40
55331;DHT22;58851;42.984;20.336;2023-11-22T11:00:16;230.70;6502.40
55331;DHT22;58851;42.984;20.336;2023-11-22T11:02:45;230.60;6502.40
55331;DHT22;58851;42.984;20.336;2023-11-22T11:05:15;230.60;6502.40
55331;DHT22;58851;42.984;20.336;2023-11-22T11:07:48;230.60;6502.40
55331;DHT22;58851;42.984;20.336;2023-11-22T11:10:15;230.60;6502.40
55331;DHT22;58851;42.984;20.336;2023-11-22T11:12:41;230.60;6502.40
55331;DHT22;58851;42.984;20.336;2023-11-22T11:15:06;230.60;6502.40
55331;DHT22;58851;42.984;20.336;2023-11-22T11:17:33;230.60;6502.40
55331;DHT22;58851;42.984;20.336;2023-11-22T11:20:00;230.50;6502.40
55331;DHT22;58851;42.984;20.336;2023-11-22T11:22:27;230.50;6502.40
55331;DHT22;58851;42.984;20.336;2023-11-22T11:25:00;230.40;6502.40
55331;DHT22;58851;42.984;20.336;2023-11-22T11:27:25;230.50;6502.40
55331;DHT22;58851;42.984;20.336;2023-11-22T11:29:51;205.70;6502.40
55331;DHT22;58851;42.984;20.336;2023-11-22T11:32:32;230.40;6502.40
55331;DHT22;58851;42.984;20.336;2023-11-22T11:35:00;230.40;6502.40
55331;DHT22;58851;42.984;20.336;2023-11-22T11:37:28;230.40;6502.40
55331;DHT22;58851;42.984;20.336;2023-11-22T11:39:55;230.40;6502.40
55331;DHT22;58851;42.984;20.336;2023-11-22T11:42:20;230.50;6502.40
55331;DHT22;58851;42.984;20.336;2023-11-22T11:47:23;230.50;6502.40
55331;DHT22;58851;42.984;20.336;2023-11-22T11:49:49;230.50;6502.40
55331;DHT22;58851;42.984;20.336;2023-11-22T11:52:16;205.70;6502.40
55331;DHT22;58851;42.984;20.336;2023-11-22T11:54:42;230.40;6502.40
55331;DHT22;58851;42.984;20.336;2023-11-22T11:57:09;230.40;6502.40
55331;DHT22;58851;42.984;20.336;2023-11-22T11:59:34;230.40;6502.40
55331;DHT22;58851;42.984;20.336;2023-11-22T12:02:00;230.40;6502.40
55331;DHT22;58851;42.984;20.336;2023-11-22T12:04:26;205.70;6502.40
55331;DHT22;58851;42.984;20.336;2023-11-22T12:06:52;205.70;6502.40
55331;DHT22;58851;42.984;20.336;2023-11-22T12:09:27;205.70;6502.40
55331;DHT22;58851;42.984;20.336;2023-11-22T12:11:55;205.70;6502.40
55331;DHT22;58851;42.984;20.336;2023-11-22T12:14:22;230.40;6502.40
55331;DHT22;58851;42.984;20.336;2023-11-22T12:16:51;205.70;6502.40
55331;DHT22;58851;42.984;20.336;2023-11-22T12:19:22;230.40;6502.40
55331;DHT22;58851;42.984;20.336;2023-11-22T12:21:48;205.70;6502.40
55331;DHT22;58851;42.984;20.336;2023-11-22T12:24:14;205.70;6502.40
55331;DHT22;58851;42.984;20.336;2023-11-22T12:26:44;205.60;6502.40
55331;DHT22;58851;42.984;20.336;2023-11-22T12:29:13;205.60;6502.40
55331;DHT22;58851;42.984;20.336;2023-11-22T12:31:44;205.60;6502.40
55331;DHT22;58851;42.984;20.336;2023-11-22T12:34:12;205.60;6502.40
55331;DHT22;58851;42.984;20.336;2023-11-22T12:36:38;205.70;6502.40
55331;DHT22;58851;42.984;20.336;2023-11-22T12:39:08;205.70;6502.40
55331;DHT22;58851;42.984;20.336;2023-11-22T12:41:44;205.60;6502.40
55331;DHT22;58851;42.984;20.336;2023-11-22T12:44:11;205.60;6502.40
55331;DHT22;58851;42.984;20.336;2023-11-22T12:46:46;205.40;6502.40
55331;DHT22;58851;42.984;20.336;2023-11-22T12:49:15;205.40;6502.40
55331;DHT22;58851;42.984;20.336;2023-11-22T12:51:51;205.30;6502.40
55331;DHT22;58851;42.984;20.336;2023-11-22T12:54:17;205.30;6502.40
55331;DHT22;58851;42.984;20.336;2023-11-22T12:56:55;205.10;6502.40
55331;DHT22;58851;42.984;20.336;2023-11-22T12:59:24;205.20;6502.40
55331;DHT22;58851;42.984;20.336;2023-11-22T13:01:53;205.20;6502.40
55331;DHT22;58851;42.984;20.336;2023-11-22T13:04:19;205.30;6502.40
55331;DHT22;58851;42.984;20.336;2023-11-22T13:06:45;205.10;6502.40
55331;DHT22;58851;42.984;20.336;2023-11-22T13:09:11;205.10;6502.40
55331;DHT22;58851;42.984;20.336;2023-11-22T13:11:43;205.20;6502.40
55331;DHT22;58851;42.984;20.336;2023-11-22T13:14:10;205.10;6502.40
55331;DHT22;58851;42.984;20.336;2023-11-22T13:16:39;180.10;6502.40
55331;DHT22;58851;42.984;20.336;2023-11-22T13:19:05;180.00;6502.40
55331;DHT22;58851;42.984;20.336;2023-11-22T13:21:31;179.90;6502.40
55331;DHT22;58851;42.984;20.336;2023-11-22T13:23:57;179.80;6502.40
55331;DHT22;58851;42.984;20.336;2023-11-22T13:26:26;179.70;6502.40
55331;DHT22;58851;42.984;20.336;2023-11-22T13:28:52;179.70;6502.40
55331;DHT22;58851;42.984;20.336;2023-11-22T13:31:19;179.70;6502.40
55331;DHT22;58851;42.984;20.336;2023-11-22T13:33:47;179.60;6502.40
55331;DHT22;58851;42.984;20.336;2023-11-22T13:36:13;179.50;6502.40
55331;DHT22;58851;42.984;20.336;2023-11-22T13:38:39;179.60;6502.40
55331;DHT22;58851;42.984;20.336;2023-11-22T13:41:06;179.50;6502.40
55331;DHT22;58851;42.984;20.336;2023-11-22T13:43:31;179.40;6502.40
55331;DHT22;58851;42.984;20.336;2023-11-22T13:45:59;179.30;6502.40
55331;DHT22;58851;42.984;20.336;2023-11-22T13:48:25;179.30;6502.40
55331;DHT22;58851;42.984;20.336;2023-11-22T13:50:51;179.40;6502.40
55331;DHT22;58851;42.984;20.336;2023-11-22T13:53:17;179.60;6502.40
55331;DHT22;58851;42.984;20.336;2023-11-22T13:55:48;179.70;6502.40
55331;DHT22;58851;42.984;20.336;2023-11-22T13:58:16;179.60;6502.40
55331;DHT22;58851;42.984;20.336;2023-11-22T14:00:41;179.60;6502.40
55331;DHT22;58851;42.984;20.336;2023-11-22T14:03:08;179.60;6502.40
55331;DHT22;58851;42.984;20.336;2023-11-22T14:05:36;179.70;6502.40
55331;DHT22;58851;42.984;20.336;2023-11-22T14:08:03;179.70;6502.40
55331;DHT22;58851;42.984;20.336;2023-11-22T14:10:29;179.70;6502.40
55331;DHT22;58851;42.984;20.336;2023-11-22T14:12:55;179.50;6502.40
55331;DHT22;58851;42.984;20.336;2023-11-22T14:15:26;179.60;6502.40
55331;DHT22;58851;42.984;20.336;2023-11-22T14:17:53;179.70;6502.40
55331;DHT22;58851;42.984;20.336;2023-11-22T14:20:19;179.60;6502.40
55331;DHT22;58851;42.984;20.336;2023-11-22T14:22:48;179.70;6502.40
55331;DHT22;58851;42.984;20.336;2023-11-22T14:25:14;179.70;6502.40
55331;DHT22;58851;42.984;20.336;2023-11-22T14:27:41;179.50;6502.40
55331;DHT22;58851;42.984;20.336;2023-11-22T14:30:08;179.50;6502.40
55331;DHT22;58851;42.984;20.336;2023-11-22T14:32:34;179.60;6502.40
55331;DHT22;58851;42.984;20.336;2023-11-22T14:35:01;179.50;6502.40
55331;DHT22;58851;42.984;20.336;2023-11-22T14:37:28;179.60;6502.40
55331;DHT22;58851;42.984;20.336;2023-11-22T14:39:53;179.50;6502.40
55331;DHT22;58851;42.984;20.336;2023-11-22T14:42:19;179.30;6502.40